Time;durP1;ratioP1;P1;durP2;ratioP2;P2;SDS_P1;SDS_P2;PMS_P1;PMS_P2;Temp;Humidity;BMP_temperature;BMP_pressure;BME280_temperature;BME280_humidity;BME280_pressure;Samples;Min_cycle;Max_cycle;Signal;HPM_P1;HPM_P2
2021/05/14 00:01:55;;;;;;;13.40;12.30;;;;;;;11.83;63.64;97503.28;5085602;28;20035;-62
2021/05/14 00:04:22;;;;;;;14.10;10.90;;;;;;;11.92;63.43;97508.94;5084313;28;20032;-62
2021/05/14 00:06:48;;;;;;;10.27;9.25;;;;;;;11.89;62.64;97503.00;5085292;28;20036;-62
2021/05/14 00:09:15;;;;;;;13.77;12.65;;;;;;;11.83;62.76;97508.41;5085205;28;20048;-62
2021/05/14 00:11:41;;;;;;;9.75;8.98;;;;;;;11.90;62.83;97511.56;5083624;28;20040;-62
2021/05/14 00:14:07;;;;;;;10.70;9.75;;;;;;;11.94;62.70;97509.69;5085490;28;20384;-62
2021/05/14 00:16:33;;;;;;;18.13;16.73;;;;;;;11.85;62.68;97514.31;5088674;28;20111;-62
2021/05/14 00:18:59;;;;;;;14.95;13.93;;;;;;;11.79;63.27;97506.03;5087436;28;20418;-62
2021/05/14 00:21:30;;;;;;;17.90;16.33;;;;;;;11.78;63.04;97507.78;5085989;28;20027;-62
2021/05/14 00:23:55;;;;;;;17.60;15.98;;;;;;;11.74;63.74;97507.97;5085115;28;20036;-62
2021/05/14 00:26:21;;;;;;;14.07;12.95;;;;;;;11.71;63.31;97524.28;5084216;28;20028;-62
2021/05/14 00:28:47;;;;;;;19.10;17.85;;;;;;;11.70;64.03;97514.94;5085812;28;20036;-62
2021/05/14 00:31:12;;;;;;;18.80;17.38;;;;;;;11.68;64.31;97515.88;5084932;28;20032;-62
2021/05/14 00:33:38;;;;;;;29.70;27.90;;;;;;;11.75;64.17;97514.78;5085466;28;20032;-62
2021/05/14 00:36:04;;;;;;;21.70;20.40;;;;;;;11.69;64.15;97517.56;5084475;28;20024;-62
2021/05/14 00:38:29;;;;;;;19.92;18.33;;;;;;;11.66;64.27;97522.81;5084561;28;20039;-62
2021/05/14 00:40:55;;;;;;;17.42;16.23;;;;;;;11.66;64.06;97520.25;5082760;28;20028;-62
2021/05/14 00:43:21;;;;;;;16.55;15.45;;;;;;;11.69;64.25;97510.69;5084606;28;20027;-62
2021/05/14 00:45:47;;;;;;;28.85;27.17;;;;;;;11.74;63.66;97518.22;5085537;28;20020;-62
2021/05/14 00:48:12;;;;;;;30.40;28.73;;;;;;;11.77;63.93;97518.94;5084834;28;20080;-61
2021/05/14 00:50:37;;;;;;;17.05;15.73;;;;;;;11.75;63.47;97510.44;5081404;28;20027;-62
2021/05/14 00:53:04;;;;;;;17.88;16.80;;;;;;;11.84;63.96;97511.78;5082543;28;20028;-62
2021/05/14 00:55:29;;;;;;;12.45;11.35;;;;;;;11.65;64.13;97510.88;5084516;28;20350;-61
2021/05/14 00:57:55;;;;;;;15.93;14.85;;;;;;;11.67;64.31;97509.09;5084573;28;20042;-62
2021/05/14 01:00:21;;;;;;;17.83;16.58;;;;;;;11.59;65.00;97511.94;5085381;28;20039;-62
2021/05/14 01:02:50;;;;;;;20.63;19.27;;;;;;;11.54;65.17;97524.16;5086113;28;20116;-62
2021/05/14 01:05:16;;;;;;;22.42;20.90;;;;;;;11.49;65.26;97513.25;5082434;28;20020;-61
2021/05/14 01:07:41;;;;;;;23.85;22.20;;;;;;;11.42;66.09;97509.22;5083692;28;20025;-62
2021/05/14 01:10:07;;;;;;;18.48;17.30;;;;;;;11.43;66.44;97503.22;5084868;28;20127;-62
2021/05/14 01:12:33;;;;;;;18.27;17.17;;;;;;;11.47;65.77;97512.44;5085362;28;20326;-62
2021/05/14 01:14:58;;;;;;;16.92;15.50;;;;;;;11.44;66.32;97513.44;5084554;28;20054;-62
2021/05/14 01:17:24;;;;;;;20.52;19.17;;;;;;;11.47;66.54;97517.59;5082998;28;20027;-62
2021/05/14 01:19:50;;;;;;;25.42;23.83;;;;;;;11.38;66.72;97511.09;5084971;28;20028;-62
2021/05/14 01:22:15;;;;;;;32.03;29.73;;;;;;;11.39;67.02;97517.91;5083575;28;20106;-62
2021/05/14 01:24:41;;;;;;;20.83;19.63;;;;;;;11.41;67.01;97525.56;5084462;28;20102;-62
2021/05/14 01:27:06;;;;;;;22.42;21.02;;;;;;;11.43;66.42;97523.75;5087103;28;20031;-62
2021/05/14 01:29:32;;;;;;;26.00;24.42;;;;;;;11.46;66.65;97533.88;5087093;28;20073;-62
2021/05/14 01:31:58;;;;;;;36.97;35.00;;;;;;;11.42;66.69;97525.47;5081802;28;20024;-62
2021/05/14 01:34:23;;;;;;;42.65;40.38;;;;;;;11.38;66.94;97531.63;5087236;28;20033;-62
2021/05/14 01:36:49;;;;;;;29.10;26.85;;;;;;;11.43;66.57;97526.31;5084340;28;20024;-62
2021/05/14 01:39:17;;;;;;;33.22;31.40;;;;;;;11.38;67.78;97525.66;5082634;28;20047;-61
2021/05/14 01:41:43;;;;;;;30.50;28.95;;;;;;;11.36;67.39;97524.88;5084243;28;20072;-61
2021/05/14 01:44:09;;;;;;;35.22;33.33;;;;;;;11.40;67.54;97524.72;5082606;28;20060;-60
2021/05/14 01:46:35;;;;;;;31.40;29.52;;;;;;;11.36;67.11;97517.19;5083601;28;20258;-61
2021/05/14 01:49:01;;;;;;;40.22;37.92;;;;;;;11.36;67.17;97525.72;5083690;28;20402;-60
2021/05/14 01:51:28;;;;;;;51.00;48.53;;;;;;;11.44;67.02;97525.41;5082856;28;20111;-61
2021/05/14 01:53:54;;;;;;;44.28;42.00;;;;;;;11.40;67.54;97541.84;5084935;28;20044;-61
2021/05/14 01:56:19;;;;;;;48.88;46.22;;;;;;;11.43;66.93;97521.19;5083323;28;20464;-61
2021/05/14 01:58:47;;;;;;;34.60;32.72;;;;;;;11.33;67.87;97515.56;5082257;28;20294;-60
2021/05/14 02:01:12;;;;;;;76.97;73.32;;;;;;;11.29;68.50;97537.13;5083773;28;20035;-61
2021/05/14 02:03:38;;;;;;;54.45;51.67;;;;;;;11.24;69.13;97530.50;5082111;28;20028;-61
2021/05/14 02:06:03;;;;;;;34.00;32.15;;;;;;;11.27;69.05;97526.09;5082103;28;20081;-61
2021/05/14 02:08:30;;;;;;;37.63;35.20;;;;;;;11.28;68.74;97532.06;5080619;28;20107;-61
2021/05/14 02:10:56;;;;;;;28.03;26.40;;;;;;;11.35;68.45;97525.78;5080622;28;20090;-61
2021/05/14 02:13:21;;;;;;;22.77;21.42;;;;;;;11.39;68.52;97523.03;5082048;28;20044;-60
2021/05/14 02:15:47;;;;;;;36.95;34.67;;;;;;;11.42;67.79;97527.19;5091532;28;20047;-60
2021/05/14 02:18:12;;;;;;;31.30;29.23;;;;;;;11.44;67.94;97517.72;5084261;28;20039;-61
2021/05/14 02:20:38;;;;;;;24.27;22.90;;;;;;;11.39;68.29;97522.19;5083748;28;20115;-61
2021/05/14 02:23:03;;;;;;;30.00;28.30;;;;;;;11.38;68.00;97535.91;5081090;28;20093;-61
2021/05/14 02:25:28;;;;;;;29.10;27.45;;;;;;;11.45;68.45;97527.09;5083576;28;20103;-61
2021/05/14 02:27:54;;;;;;;37.22;35.28;;;;;;;11.42;68.81;97529.75;5082501;28;20123;-61
2021/05/14 02:30:20;;;;;;;40.20;38.03;;;;;;;11.41;69.30;97530.69;5084571;28;20043;-61
2021/05/14 02:32:46;;;;;;;39.03;37.03;;;;;;;11.39;68.88;97522.19;5080895;28;20025;-61
2021/05/14 02:35:12;;;;;;;34.33;32.15;;;;;;;11.37;68.69;97529.94;5080218;28;20033;-60
2021/05/14 02:37:38;;;;;;;26.40;24.83;;;;;;;11.43;68.86;97529.72;5082228;28;20285;-61
2021/05/14 02:40:05;;;;;;;26.23;24.08;;;;;;;11.40;68.47;97534.97;5080792;28;20028;-61
2021/05/14 02:42:30;;;;;;;25.42;23.90;;;;;;;11.45;68.26;97527.09;5080971;28;20032;-61
2021/05/14 02:44:55;;;;;;;18.92;17.48;;;;;;;11.37;68.24;97549.66;5082182;28;20035;-61
2021/05/14 02:47:21;;;;;;;25.35;23.88;;;;;;;11.43;68.32;97539.13;5078779;28;20286;-61
2021/05/14 02:49:46;;;;;;;22.40;21.08;;;;;;;11.42;68.11;97534.91;5080540;28;20032;-61
2021/05/14 02:52:12;;;;;;;19.98;18.33;;;;;;;11.43;67.20;97539.97;5081098;28;20035;-61
2021/05/14 02:54:38;;;;;;;25.80;23.55;;;;;;;11.46;67.95;97542.41;5080871;28;20033;-60
2021/05/14 02:57:04;;;;;;;20.80;19.45;;;;;;;11.50;67.35;97538.00;5081690;28;20840;-61
2021/05/14 02:59:30;;;;;;;19.20;17.33;;;;;;;11.48;67.46;97539.78;5078150;28;20064;-61
2021/05/14 03:01:56;;;;;;;23.15;21.60;;;;;;;11.43;66.59;97539.13;5078650;28;20452;-61
2021/05/14 03:04:22;;;;;;;17.83;16.50;;;;;;;11.41;66.68;97564.03;5079476;28;20039;-60
2021/05/14 03:06:47;;;;;;;14.27;13.05;;;;;;;11.48;66.44;97557.75;5083343;28;20033;-61
2021/05/14 03:09:13;;;;;;;17.00;15.35;;;;;;;11.40;67.27;97558.06;5080695;28;20131;-60
2021/05/14 03:11:38;;;;;;;19.42;18.27;;;;;;;11.37;68.10;97554.78;5081849;28;20024;-60
2021/05/14 03:14:05;;;;;;;17.85;16.17;;;;;;;11.34;67.57;97555.72;5080724;28;20165;-60
2021/05/14 03:16:32;;;;;;;26.27;23.65;;;;;;;11.36;68.52;97559.09;5082072;28;20377;-60
2021/05/14 03:18:57;;;;;;;17.65;16.48;;;;;;;11.29;68.58;97564.50;5083146;28;20165;-60
2021/05/14 03:21:23;;;;;;;17.60;16.13;;;;;;;11.20;69.13;97570.00;5082116;28;20119;-60
2021/05/14 03:23:48;;;;;;;20.05;18.75;;;;;;;11.21;68.68;97574.22;5084597;28;20066;-60
2021/05/14 03:26:14;;;;;;;14.85;13.75;;;;;;;11.21;69.50;97571.66;5084029;28;20024;-60
2021/05/14 03:28:39;;;;;;;20.00;18.58;;;;;;;11.16;68.67;97588.97;5081966;28;20032;-61
2021/05/14 03:31:04;;;;;;;27.67;25.10;;;;;;;11.15;69.04;97587.31;5086246;28;20028;-60
2021/05/14 03:33:30;;;;;;;17.45;16.40;;;;;;;11.18;69.16;97587.19;5083115;28;20385;-60
2021/05/14 03:35:55;;;;;;;20.02;18.33;;;;;;;11.16;69.21;97591.53;5082760;28;20672;-61
2021/05/14 03:38:31;;;;;;;24.80;23.40;;;;;;;11.11;69.40;97594.28;5083576;28;20032;-60
2021/05/14 03:40:56;;;;;;;17.75;16.60;;;;;;;11.12;69.70;97602.81;5086076;28;20055;-59
2021/05/14 03:43:22;;;;;;;12.93;11.95;;;;;;;11.21;69.53;97599.88;5082535;28;20259;-61
2021/05/14 03:45:47;;;;;;;12.60;11.40;;;;;;;11.17;69.50;97606.03;5085523;28;20052;-60
2021/05/14 03:48:20;;;;;;;18.95;17.63;;;;;;;11.08;69.78;97617.47;5082779;28;20036;-61
2021/05/14 03:50:48;;;;;;;9.80;8.88;;;;;;;11.10;69.00;97608.00;5083521;28;20102;-59
2021/05/14 03:53:13;;;;;;;15.63;14.27;;;;;;;10.99;68.76;97616.06;5086022;28;20063;-60
2021/05/14 03:55:39;;;;;;;18.73;17.35;;;;;;;11.00;68.81;97604.09;5083663;28;20067;-61
2021/05/14 03:58:05;;;;;;;17.85;16.55;;;;;;;11.00;69.18;97609.22;5093988;28;20312;-61
2021/05/14 04:00:30;;;;;;;14.60;13.35;;;;;;;10.91;69.65;97614.69;5083426;28;20024;-61
2021/05/14 04:02:56;;;;;;;14.50;12.88;;;;;;;11.00;69.65;97612.63;5083063;28;20063;-61
2021/05/14 04:05:22;;;;;;;13.55;11.35;;;;;;;10.97;69.73;97617.88;5082505;28;20044;-62
2021/05/14 04:07:48;;;;;;;7.82;7.07;;;;;;;11.09;69.07;97618.31;5081436;28;20043;-60
2021/05/14 04:10:19;;;;;;;6.88;5.43;;;;;;;10.95;69.04;97619.66;5082489;28;20060;-61
2021/05/14 04:15:29;;;;;;;17.60;16.05;;;;;;;11.02;68.86;97625.41;5084853;28;20089;-61
2021/05/14 04:17:55;;;;;;;11.88;10.70;;;;;;;11.18;68.44;97630.78;5085380;28;20310;-61
2021/05/14 04:20:20;;;;;;;15.15;14.23;;;;;;;11.11;68.73;97631.91;5084839;28;20043;-61
2021/05/14 04:22:46;;;;;;;17.63;16.55;;;;;;;11.18;67.79;97626.50;5085453;28;20043;-61
2021/05/14 04:25:12;;;;;;;15.40;14.18;;;;;;;11.16;68.59;97635.97;5083180;28;20108;-61
2021/05/14 04:27:37;;;;;;;8.38;7.30;;;;;;;11.19;68.96;97629.91;5084413;28;20107;-61
2021/05/14 04:30:03;;;;;;;9.32;8.52;;;;;;;11.16;68.88;97633.41;5081734;28;20181;-61
2021/05/14 04:32:29;;;;;;;24.30;13.10;;;;;;;11.21;69.50;97628.09;5081695;28;20032;-61
2021/05/14 04:34:54;;;;;;;11.25;10.35;;;;;;;11.24;69.00;97623.72;5084432;28;20119;-61
2021/05/14 04:37:20;;;;;;;13.77;12.85;;;;;;;11.24;69.02;97633.13;5084576;28;20055;-61
2021/05/14 04:39:45;;;;;;;13.50;12.18;;;;;;;11.27;68.01;97627.88;5081403;28;20036;-60
2021/05/14 04:42:11;;;;;;;8.18;7.32;;;;;;;11.30;67.73;97636.28;5084687;28;20032;-61
2021/05/14 04:44:36;;;;;;;8.43;6.30;;;;;;;11.41;68.19;97633.34;5082506;28;20028;-61
2021/05/14 04:47:02;;;;;;;11.43;10.55;;;;;;;11.43;67.55;97639.22;5084328;28;20028;-61
2021/05/14 04:49:28;;;;;;;6.90;6.30;;;;;;;11.55;67.84;97630.22;5085845;28;20069;-61
2021/05/14 04:51:53;;;;;;;8.02;6.75;;;;;;;11.64;67.93;97640.13;5084899;28;20036;-61
2021/05/14 04:54:19;;;;;;;5.88;3.72;;;;;;;11.76;66.63;97634.53;5082494;28;20395;-61
2021/05/14 04:56:45;;;;;;;6.95;3.97;;;;;;;11.74;66.59;97642.31;5083028;28;20032;-60
2021/05/14 04:59:10;;;;;;;6.97;5.13;;;;;;;11.86;66.61;97638.41;5084323;28;20035;-61
2021/05/14 05:01:35;;;;;;;6.28;3.40;;;;;;;11.82;67.11;97640.28;5088161;28;20028;-61
2021/05/14 05:04:01;;;;;;;9.50;5.40;;;;;;;11.87;67.11;97651.22;5083193;28;20029;-61
2021/05/14 05:06:26;;;;;;;7.22;4.00;;;;;;;12.01;67.11;97650.63;5092918;28;20020;-61
2021/05/14 05:08:52;;;;;;;5.45;3.17;;;;;;;12.02;66.91;97651.47;5085955;28;20393;-61
2021/05/14 05:11:18;;;;;;;7.35;3.90;;;;;;;12.03;66.91;97651.44;5085937;28;20111;-60
2021/05/14 05:13:43;;;;;;;13.88;5.90;;;;;;;12.20;66.08;97650.72;5081774;28;20449;-61
2021/05/14 05:16:09;;;;;;;7.10;4.00;;;;;;;12.29;66.00;97660.63;5081623;28;20044;-63
2021/05/14 05:18:35;;;;;;;9.40;4.55;;;;;;;12.45;65.42;97658.25;5085701;28;20040;-61
2021/05/14 05:21:00;;;;;;;5.53;4.10;;;;;;;12.36;64.52;97656.91;5083275;28;20415;-61
2021/05/14 05:23:26;;;;;;;5.18;3.05;;;;;;;12.42;64.30;97656.66;5083989;28;20475;-61
2021/05/14 05:25:52;;;;;;;7.45;4.55;;;;;;;12.62;64.63;97659.22;5094060;28;20293;-61
2021/05/14 05:28:32;;;;;;;9.02;4.80;;;;;;;12.52;64.57;97662.25;5085082;28;20028;-61
2021/05/14 05:30:57;;;;;;;6.75;3.60;;;;;;;12.39;64.37;97674.75;5083808;28;20035;-61
2021/05/14 05:33:23;;;;;;;7.00;4.00;;;;;;;12.44;64.21;97669.44;5084556;28;20044;-61
2021/05/14 05:35:48;;;;;;;8.48;3.85;;;;;;;12.64;64.24;97674.59;5086349;28;20105;-61
2021/05/14 05:38:18;;;;;;;10.07;5.00;;;;;;;12.56;64.77;97674.09;5085750;28;20278;-61
2021/05/14 05:40:44;;;;;;;6.22;3.65;;;;;;;12.48;64.67;97674.38;5086258;28;20234;-61
2021/05/14 05:43:10;;;;;;;4.88;3.75;;;;;;;12.56;64.66;97669.75;5084956;28;20034;-61
2021/05/14 05:45:36;;;;;;;9.95;4.28;;;;;;;12.42;64.99;97676.38;5085760;28;20055;-61
2021/05/14 05:48:02;;;;;;;5.70;3.65;;;;;;;12.40;64.84;97694.44;5083554;28;20058;-61
2021/05/14 05:50:27;;;;;;;7.50;4.00;;;;;;;12.37;64.47;97684.28;5082790;28;20286;-60
2021/05/14 05:52:54;;;;;;;7.32;3.30;;;;;;;12.37;65.05;97694.56;5082214;28;20032;-60
2021/05/14 05:55:21;;;;;;;6.05;3.47;;;;;;;12.37;65.59;97692.00;5085076;28;20040;-61
2021/05/14 05:57:47;;;;;;;6.65;3.35;;;;;;;12.31;65.12;97697.38;5082037;28;20369;-60
2021/05/14 06:00:13;;;;;;;10.00;4.88;;;;;;;12.44;65.24;97698.56;5080313;28;20032;-62
2021/05/14 06:02:38;;;;;;;8.25;3.72;;;;;;;12.72;65.00;97691.38;5084692;28;20044;-60
2021/05/14 06:05:05;;;;;;;10.55;4.53;;;;;;;12.50;65.26;97712.91;5079754;28;20727;-60
2021/05/14 06:07:30;;;;;;;5.88;2.85;;;;;;;12.37;65.69;97710.00;5081806;28;20036;-60
2021/05/14 06:09:56;;;;;;;4.43;2.45;;;;;;;12.25;66.56;97711.34;5085194;28;20067;-60
2021/05/14 06:12:21;;;;;;;4.53;2.55;;;;;;;12.56;67.34;97707.50;5084377;28;20028;-61
2021/05/14 06:14:47;;;;;;;10.70;4.07;;;;;;;12.46;66.57;97712.19;5083386;28;20029;-59
2021/05/14 06:17:13;;;;;;;9.10;2.97;;;;;;;12.67;65.57;97713.88;5082123;28;20016;-62
2021/05/14 06:19:49;;;;;;;11.68;4.97;;;;;;;12.66;66.29;97730.19;5084799;28;20024;-62
2021/05/14 06:22:14;;;;;;;10.32;4.72;;;;;;;12.81;64.78;97726.97;5086710;28;20035;-62
2021/05/14 06:24:40;;;;;;;2.65;1.80;;;;;;;12.80;65.10;97727.88;5085085;28;20032;-62
2021/05/14 06:27:05;;;;;;;6.47;3.00;;;;;;;12.94;64.52;97729.88;5080660;28;20035;-60
2021/05/14 06:29:31;;;;;;;8.20;4.00;;;;;;;12.96;63.88;97724.66;5081690;28;20027;-61
2021/05/14 06:31:57;;;;;;;9.45;4.55;;;;;;;12.86;64.29;97731.09;5081960;28;20021;-61
2021/05/14 06:34:22;;;;;;;9.85;4.63;;;;;;;12.72;64.15;97724.81;5079003;28;20040;-61
2021/05/14 06:36:48;;;;;;;11.63;4.85;;;;;;;12.60;65.68;97729.63;5082963;28;20047;-61
2021/05/14 06:39:13;;;;;;;8.05;4.05;;;;;;;12.82;65.96;97730.38;5080696;28;20371;-62
2021/05/14 06:41:39;;;;;;;2.92;2.05;;;;;;;12.79;65.83;97731.34;5081859;28;20031;-62
2021/05/14 06:44:04;;;;;;;8.18;4.28;;;;;;;12.82;65.75;97750.94;5079288;28;20581;-62
2021/05/14 06:46:31;;;;;;;10.85;5.05;;;;;;;12.93;66.32;97741.06;5081513;28;20032;-62
2021/05/14 06:48:57;;;;;;;6.07;2.95;;;;;;;13.03;65.60;97746.63;5082918;28;20024;-62
2021/05/14 06:51:22;;;;;;;6.28;3.75;;;;;;;12.91;65.68;97749.72;5088167;28;20024;-62
2021/05/14 06:53:50;;;;;;;9.90;4.32;;;;;;;13.06;65.39;97741.38;5087155;28;20373;-62
2021/05/14 06:56:15;;;;;;;5.82;3.35;;;;;;;13.04;65.98;97750.88;5088043;28;20337;-63
2021/05/14 06:58:41;;;;;;;7.57;3.90;;;;;;;12.96;65.16;97750.38;5088968;28;20115;-63
2021/05/14 07:01:06;;;;;;;6.13;3.83;;;;;;;13.10;65.79;97763.50;5086606;28;20031;-63
2021/05/14 07:03:31;;;;;;;9.07;5.05;;;;;;;13.12;64.58;97766.84;5083562;28;20024;-64
2021/05/14 07:05:57;;;;;;;9.07;4.05;;;;;;;13.09;65.64;97772.13;5086462;28;20027;-63
2021/05/14 07:08:22;;;;;;;10.30;4.63;;;;;;;13.06;65.85;97761.97;5089029;28;20644;-62
2021/05/14 07:10:48;;;;;;;12.15;5.20;;;;;;;13.48;64.32;97769.56;5085615;28;20072;-63
2021/05/14 07:13:13;;;;;;;11.70;4.78;;;;;;;13.50;64.83;97773.75;5089284;28;20047;-65
2021/05/14 07:15:39;;;;;;;11.18;5.43;;;;;;;13.68;63.44;97772.09;5086081;28;20032;-62
2021/05/14 07:18:04;;;;;;;6.82;3.17;;;;;;;13.20;64.58;97785.38;5084030;28;20021;-61
2021/05/14 07:20:32;;;;;;;17.42;6.57;;;;;;;13.31;63.80;97778.03;5085258;28;20020;-61
2021/05/14 07:22:58;;;;;;;8.98;4.05;;;;;;;13.36;64.69;97778.69;5084963;28;20036;-62
2021/05/14 07:25:24;;;;;;;7.47;3.10;;;;;;;13.27;64.38;97771.38;5088157;28;20035;-62
2021/05/14 07:27:49;;;;;;;9.20;3.97;;;;;;;13.29;63.61;97782.41;5085827;28;20028;-65
2021/05/14 07:30:15;;;;;;;9.45;4.38;;;;;;;13.82;63.70;97777.47;5084530;28;20339;-63
2021/05/14 07:32:41;;;;;;;8.93;3.97;;;;;;;13.97;64.04;97783.63;5085429;28;20027;-62
2021/05/14 07:35:07;;;;;;;9.85;4.80;;;;;;;13.54;63.94;97779.59;5086430;28;20036;-62
2021/05/14 07:37:33;;;;;;;8.25;3.90;;;;;;;13.42;63.59;97786.13;5084836;28;20103;-62
2021/05/14 07:39:58;;;;;;;7.65;3.72;;;;;;;13.55;63.01;97786.41;5086680;28;20142;-63
2021/05/14 07:42:24;;;;;;;7.60;3.92;;;;;;;13.66;62.63;97774.72;5083404;28;20028;-63
2021/05/14 07:44:49;;;;;;;10.63;4.80;;;;;;;13.62;62.59;97778.34;5088034;28;20290;-61
2021/05/14 07:47:15;;;;;;;6.45;2.88;;;;;;;13.92;61.67;97783.03;5088546;28;20080;-61
2021/05/14 07:49:41;;;;;;;7.68;3.63;;;;;;;13.83;61.24;97789.44;5087683;28;20111;-62
2021/05/14 07:52:07;;;;;;;11.75;4.75;;;;;;;13.76;62.19;97787.19;5086861;28;20381;-61
2021/05/14 07:54:32;;;;;;;8.68;4.10;;;;;;;13.72;62.49;97799.38;5087917;28;20028;-61
2021/05/14 07:56:58;;;;;;;8.43;3.97;;;;;;;13.68;62.53;97780.66;5088291;28;20082;-61
2021/05/14 07:59:23;;;;;;;7.63;3.17;;;;;;;13.63;62.21;97782.59;5085147;28;20281;-61
2021/05/14 08:01:49;;;;;;;11.52;4.78;;;;;;;13.61;62.17;97799.03;5088262;28;20119;-62
2021/05/14 08:04:14;;;;;;;9.57;4.45;;;;;;;13.81;62.09;97787.84;5086071;28;20027;-61
2021/05/14 08:06:39;;;;;;;11.20;3.90;;;;;;;13.79;62.68;97794.81;5085786;28;20028;-61
2021/05/14 08:09:08;;;;;;;12.00;4.63;;;;;;;14.06;60.62;97788.38;5085156;28;20044;-62
2021/05/14 08:11:34;;;;;;;6.00;3.00;;;;;;;14.02;61.85;97797.16;5084057;28;20399;-63
2021/05/14 08:14:00;;;;;;;7.10;3.55;;;;;;;14.06;60.73;97801.25;5082455;28;20024;-62
2021/05/14 08:16:26;;;;;;;12.00;5.18;;;;;;;13.99;60.80;97797.31;5084717;28;20108;-61
2021/05/14 08:18:51;;;;;;;12.18;5.35;;;;;;;14.02;61.41;97799.72;5084065;28;20139;-62
2021/05/14 08:21:19;;;;;;;6.68;3.10;;;;;;;14.43;61.19;97802.97;5087421;28;20373;-63
2021/05/14 08:23:44;;;;;;;8.02;3.65;;;;;;;14.26;60.64;97808.09;5085074;28;20039;-62
2021/05/14 08:26:10;;;;;;;6.57;3.45;;;;;;;14.05;60.91;97808.16;5087078;28;20023;-62
2021/05/14 08:28:36;;;;;;;8.10;3.50;;;;;;;13.92;59.80;97813.97;5084080;28;20081;-63
2021/05/14 08:31:02;;;;;;;8.63;3.97;;;;;;;14.01;61.09;97813.53;5085269;28;20028;-62
2021/05/14 08:33:27;;;;;;;9.55;4.20;;;;;;;14.15;60.04;97801.69;5084856;28;20016;-65
2021/05/14 08:35:53;;;;;;;14.73;4.80;;;;;;;14.07;59.79;97810.69;5083409;28;20059;-63
2021/05/14 08:38:18;;;;;;;17.77;6.78;;;;;;;14.17;60.21;97824.81;5087887;28;20066;-64
2021/05/14 08:40:44;;;;;;;9.10;3.95;;;;;;;14.63;59.32;97823.50;5085637;28;20131;-62
2021/05/14 08:43:11;;;;;;;7.40;3.42;;;;;;;14.83;57.92;97817.38;5086238;28;20208;-61
2021/05/14 08:45:38;;;;;;;6.65;3.40;;;;;;;14.50;59.17;97819.84;5084652;28;20020;-63
2021/05/14 08:48:11;;;;;;;9.07;3.78;;;;;;;14.78;58.34;97816.75;5083619;28;20303;-63
2021/05/14 08:50:37;;;;;;;7.80;3.60;;;;;;;14.69;58.93;97822.38;5084047;28;20102;-62
2021/05/14 08:53:02;;;;;;;7.65;3.40;;;;;;;15.05;54.80;97811.09;5084221;28;20105;-63
2021/05/14 08:55:29;;;;;;;8.95;3.85;;;;;;;15.29;58.04;97824.50;5082698;28;20035;-64
2021/05/14 08:57:55;;;;;;;6.63;3.38;;;;;;;15.72;56.19;97810.22;5083960;28;20321;-66
2021/05/14 09:00:21;;;;;;;12.10;5.20;;;;;;;15.36;54.68;97817.28;5084404;28;20024;-64
2021/05/14 09:02:47;;;;;;;6.32;3.05;;;;;;;15.61;54.67;97822.91;5087999;28;20109;-64
2021/05/14 09:05:21;;;;;;;10.60;4.45;;;;;;;16.00;52.16;97827.69;5092263;28;20044;-64
2021/05/14 09:07:47;;;;;;;6.60;2.85;;;;;;;15.87;53.89;97824.91;5084451;28;20020;-64
2021/05/14 09:10:13;;;;;;;6.85;2.95;;;;;;;16.14;53.71;97824.34;5084465;28;20395;-66
2021/05/14 09:12:40;;;;;;;7.88;2.90;;;;;;;16.35;52.43;97823.19;5087022;28;20023;-64
2021/05/14 09:15:25;;;;;;;3.55;2.38;;;;;;;16.10;51.80;97822.84;5083203;28;20039;-64
2021/05/14 09:18:10;;;;;;;5.82;3.28;;;;;;;16.00;51.12;97832.84;5084993;28;20386;-64
2021/05/14 09:20:40;;;;;;;6.60;2.67;;;;;;;16.12;51.12;97824.47;5089917;28;20127;-64
2021/05/14 09:23:21;;;;;;;4.28;2.50;;;;;;;16.05;49.58;97823.09;5084946;28;20024;-64
2021/05/14 09:25:58;;;;;;;4.15;2.40;;;;;;;16.11;50.07;97824.53;5083729;28;20112;-64
2021/05/14 09:28:31;;;;;;;5.00;2.83;;;;;;;16.51;50.15;97821.41;5091729;28;20020;-64
2021/05/14 09:31:02;;;;;;;7.53;3.33;;;;;;;16.38;48.59;97826.44;5100158;28;20050;-64
2021/05/14 09:33:28;;;;;;;6.55;3.55;;;;;;;16.15;49.42;97823.44;5085475;28;20061;-64
2021/05/14 09:36:01;;;;;;;5.32;2.75;;;;;;;16.18;49.76;97831.88;5082399;28;20039;-64
2021/05/14 09:38:27;;;;;;;7.28;3.80;;;;;;;16.30;48.49;97830.38;5084625;28;20024;-64
2021/05/14 09:40:54;;;;;;;5.80;2.75;;;;;;;16.62;48.56;97833.81;5081443;28;20103;-64
2021/05/14 09:43:23;;;;;;;5.95;3.20;;;;;;;16.65;47.62;97831.88;5083835;28;20056;-64
2021/05/14 09:45:49;;;;;;;6.15;3.28;;;;;;;16.68;47.51;97843.78;5082024;28;20025;-64
2021/05/14 09:48:26;;;;;;;4.03;2.45;;;;;;;16.54;47.07;97841.97;5082405;28;20031;-64
2021/05/14 09:50:53;;;;;;;3.80;2.33;;;;;;;16.76;46.93;97837.28;5080168;28;20398;-63
2021/05/14 09:53:19;;;;;;;6.50;2.92;;;;;;;16.74;46.03;97838.28;5085077;28;20335;-64
2021/05/14 09:58:37;;;;;;;5.55;2.97;;;;;;;16.57;46.22;97840.94;5086476;28;20028;-64
2021/05/14 10:01:02;;;;;;;5.45;3.13;;;;;;;16.89;45.90;97850.34;5082904;28;20364;-64
2021/05/14 10:03:31;;;;;;;4.45;2.55;;;;;;;16.67;45.55;97849.91;5090071;28;20032;-64
2021/05/14 10:05:57;;;;;;;6.75;2.63;;;;;;;16.55;45.52;97843.63;5082175;28;20024;-63
2021/05/14 10:08:31;;;;;;;4.70;2.95;;;;;;;16.48;46.10;97856.97;5083240;28;20040;-63
2021/05/14 10:11:01;;;;;;;3.75;2.45;;;;;;;16.38;45.66;97852.31;5081828;28;20364;-63
2021/05/14 10:13:29;;;;;;;3.92;2.13;;;;;;;16.58;45.61;97853.00;5082073;28;20025;-63
2021/05/14 10:15:55;;;;;;;4.05;2.40;;;;;;;16.42;45.43;97855.59;5080124;28;20431;-64
2021/05/14 10:18:22;;;;;;;4.05;2.70;;;;;;;16.51;45.77;97857.66;5083798;28;20116;-63
2021/05/14 10:20:50;;;;;;;6.85;3.10;;;;;;;16.33;45.21;97854.34;5084678;28;20043;-63
2021/05/14 10:23:17;;;;;;;6.78;3.13;;;;;;;16.12;45.51;97860.66;5091587;28;20028;-64
2021/05/14 10:25:47;;;;;;;5.47;2.40;;;;;;;16.18;44.70;97862.91;5087066;28;20016;-63
2021/05/14 10:28:20;;;;;;;5.38;2.95;;;;;;;16.20;45.39;97866.25;5085300;28;20499;-63
2021/05/14 10:31:00;;;;;;;6.00;2.83;;;;;;;16.21;45.70;97865.31;5086265;28;20020;-63
2021/05/14 10:33:39;;;;;;;3.22;2.05;;;;;;;16.14;45.38;97864.00;5089295;28;20111;-63
2021/05/14 10:36:10;;;;;;;4.70;2.58;;;;;;;16.11;45.61;97853.81;5087448;28;20101;-63
2021/05/14 10:38:36;;;;;;;5.90;3.20;;;;;;;16.24;45.30;97852.25;5087877;28;20032;-63
2021/05/14 10:41:27;;;;;;;5.30;2.95;;;;;;;16.34;45.19;97855.16;5087023;28;20082;-63
2021/05/14 10:44:08;;;;;;;6.25;3.92;;;;;;;16.43;44.79;97862.41;5084976;28;20330;-63
2021/05/14 10:46:34;;;;;;;4.93;2.80;;;;;;;16.60;44.78;97858.91;5087596;28;20107;-63
2021/05/14 10:49:06;;;;;;;4.75;2.58;;;;;;;16.68;44.53;97851.56;5085050;28;20090;-63
2021/05/14 10:51:58;;;;;;;3.60;2.42;;;;;;;16.99;44.47;97851.50;5085988;28;20036;-64
2021/05/14 10:54:39;;;;;;;6.32;3.35;;;;;;;16.77;44.43;97838.09;5082145;28;20024;-63
2021/05/14 10:57:05;;;;;;;3.38;2.28;;;;;;;16.82;44.04;97843.88;5084660;28;20029;-64
2021/05/14 10:59:38;;;;;;;5.10;2.80;;;;;;;16.99;44.55;97832.53;5084835;28;20032;-63
2021/05/14 11:02:27;;;;;;;3.35;2.13;;;;;;;17.44;43.58;97836.81;5084111;28;20036;-63
2021/05/14 11:04:53;;;;;;;6.20;3.63;;;;;;;17.76;42.20;97836.59;5085300;28;20020;-63
2021/05/14 11:07:35;;;;;;;7.10;3.42;;;;;;;17.57;43.49;97846.34;5084593;28;20378;-63
2021/05/14 11:10:12;;;;;;;7.15;2.83;;;;;;;17.52;43.71;97845.81;5095470;28;20068;-63
2021/05/14 11:12:41;;;;;;;7.43;3.38;;;;;;;17.67;43.72;97833.72;5085027;28;20083;-63
2021/05/14 11:15:19;;;;;;;5.43;3.10;;;;;;;18.11;43.03;97828.41;5086621;28;20028;-63
2021/05/14 11:18:21;;;;;;;4.07;2.47;;;;;;;18.09;43.29;97838.88;5085773;28;20289;-63
2021/05/14 11:20:48;;;;;;;11.63;5.43;;;;;;;18.27;42.88;97836.91;5081443;28;20020;-63
2021/05/14 11:23:38;;;;;;;4.60;3.08;;;;;;;18.53;41.18;97830.94;5084832;28;20028;-63
2021/05/14 11:26:08;;;;;;;5.70;3.20;;;;;;;18.57;40.51;97839.34;5082330;28;20526;-64
2021/05/14 11:28:39;;;;;;;4.75;2.70;;;;;;;18.63;40.21;97833.75;5085605;28;20093;-64
2021/05/14 11:31:04;;;;;;;4.30;2.88;;;;;;;18.33;40.79;97830.50;5087609;28;20114;-64
2021/05/14 11:33:30;;;;;;;4.47;2.92;;;;;;;18.45;40.38;97820.16;5082337;28;20111;-63